Time;durP1;ratioP1;P1;durP2;ratioP2;P2;SDS_P1;SDS_P2;PMS_P1;PMS_P2;Temp;Humidity;BMP_temperature;BMP_pressure;BME280_temperature;BME280_humidity;BME280_pressure;Samples;Min_cycle;Max_cycle;Signal;HPM_P1;HPM_P2
2023/07/14 00:00:08;;;;;;;3.90;2.83;;;23.50;72.40;;;;;;5012907;28;20869;-71
2023/07/14 00:02:35;;;;;;;6.40;3.33;;;23.50;72.70;;;;;;5018021;28;20497;-71
2023/07/14 00:05:03;;;;;;;4.97;3.10;;;23.50;72.70;;;;;;5015469;28;20967;-71
2023/07/14 00:07:28;;;;;;;4.70;3.00;;;23.40;73.10;;;;;;5012796;28;20921;-72
2023/07/14 00:09:54;;;;;;;5.93;3.10;;;23.40;73.70;;;;;;5017290;28;20463;-71
2023/07/14 00:12:19;;;;;;;5.30;2.90;;;23.30;74.00;;;;;;5019421;28;20210;-71
2023/07/14 00:14:45;;;;;;;4.10;3.20;;;23.20;74.50;;;;;;5021318;28;20296;-71
2023/07/14 00:17:12;;;;;;;3.53;3.07;;;23.20;74.60;;;;;;5020052;28;20260;-71
2023/07/14 00:19:38;;;;;;;4.07;2.70;;;23.10;74.70;;;;;;5020098;28;20444;-71
2023/07/14 00:22:12;;;;;;;7.03;3.00;;;23.10;74.80;;;;;;5023204;28;20522;-71
2023/07/14 00:24:37;;;;;;;5.30;3.17;;;23.10;74.60;;;;;;5019523;28;20462;-71
2023/07/14 00:27:14;;;;;;;7.70;2.93;;;23.00;75.00;;;;;;5020298;28;20467;-72
2023/07/14 00:29:39;;;;;;;8.40;3.30;;;23.00;75.10;;;;;;5019201;28;20188;-71
2023/07/14 00:32:10;;;;;;;5.03;2.60;;;23.00;75.50;;;;;;5016863;28;20439;-71
2023/07/14 00:34:35;;;;;;;8.43;3.60;;;23.10;75.80;;;;;;5019792;28;20360;-72
2023/07/14 00:37:01;;;;;;;4.10;2.80;;;23.10;76.00;;;;;;5024282;28;20423;-72
2023/07/14 00:39:26;;;;;;;6.50;3.23;;;23.00;76.70;;;;;;5020985;28;20188;-71
2023/07/14 00:41:53;;;;;;;6.97;3.10;;;23.00;77.30;;;;;;5023948;28;20176;-71
2023/07/14 00:44:19;;;;;;;9.60;3.80;;;23.00;77.30;;;;;;5020796;28;20790;-72
2023/07/14 00:46:45;;;;;;;4.70;3.07;;;23.00;77.20;;;;;;5021342;28;20462;-71
2023/07/14 00:49:25;;;;;;;4.10;2.90;;;23.00;77.20;;;;;;5015327;28;20640;-71
2023/07/14 00:51:51;;;;;;;4.60;3.80;;;22.90;77.10;;;;;;5021030;28;20439;-71
2023/07/14 00:54:27;;;;;;;4.57;3.43;;;23.00;77.10;;;;;;5017866;28;20459;-71
2023/07/14 00:56:54;;;;;;;4.67;3.20;;;22.90;77.20;;;;;;5020526;28;20806;-71
2023/07/14 00:59:20;;;;;;;4.10;3.03;;;22.90;77.00;;;;;;5015051;28;20552;-71
2023/07/14 01:02:24;;;;;;;5.43;3.30;;;22.80;77.20;;;;;;5018590;28;20448;-71
2023/07/14 01:05:00;;;;;;;4.73;3.07;;;22.70;77.80;;;;;;5022850;28;20443;-71
2023/07/14 01:07:35;;;;;;;5.27;3.50;;;22.70;78.10;;;;;;5015654;28;21172;-72
2023/07/14 01:10:01;;;;;;;4.07;3.40;;;22.70;78.00;;;;;;5016307;28;20457;-72
2023/07/14 01:12:30;;;;;;;3.73;3.37;;;22.80;78.40;;;;;;5016303;28;20792;-72
2023/07/14 01:14:58;;;;;;;4.57;3.30;;;22.80;78.50;;;;;;5024910;28;20790;-72
2023/07/14 01:17:24;;;;;;;3.40;3.10;;;22.80;79.10;;;;;;5016164;28;20876;-72
2023/07/14 01:19:59;;;;;;;3.80;3.10;;;22.80;79.30;;;;;;5020182;28;20440;-72
2023/07/14 01:22:30;;;;;;;4.17;3.10;;;22.80;79.80;;;;;;5018839;28;20605;-72
2023/07/14 01:25:33;;;;;;;4.30;3.47;;;22.80;79.80;;;;;;5017604;28;20462;-72
2023/07/14 01:28:03;;;;;;;4.03;3.50;;;22.80;80.50;;;;;;5023799;28;20470;-72
2023/07/14 01:30:30;;;;;;;5.27;4.60;;;22.80;81.30;;;;;;5016722;28;20422;-72
2023/07/14 01:32:56;;;;;;;3.90;3.50;;;22.70;81.50;;;;;;5016446;28;20479;-71
2023/07/14 01:35:28;;;;;;;6.60;4.30;;;22.70;82.20;;;;;;5014606;28;20750;-71
2023/07/14 01:37:54;;;;;;;4.23;3.53;;;22.70;82.20;;;;;;5019862;28;20254;-71
2023/07/14 01:40:21;;;;;;;5.60;3.97;;;22.70;82.20;;;;;;5012125;28;20431;-71
2023/07/14 01:42:58;;;;;;;7.20;4.00;;;22.70;82.30;;;;;;5012006;28;21031;-71
2023/07/14 01:45:30;;;;;;;4.67;3.90;;;22.70;82.50;;;;;;5011972;28;20446;-71
2023/07/14 01:47:59;;;;;;;9.47;4.57;;;22.60;82.80;;;;;;5015590;28;20587;-71
2023/07/14 01:50:37;;;;;;;5.10;3.70;;;22.60;82.90;;;;;;5017363;28;20827;-71
2023/07/14 01:53:22;;;;;;;5.50;3.90;;;22.60;83.60;;;;;;5019208;28;20439;-71
2023/07/14 01:55:49;;;;;;;6.07;3.50;;;22.60;83.30;;;;;;5011791;28;20435;-71
2023/07/14 01:58:21;;;;;;;4.10;3.37;;;22.60;83.40;;;;;;5019688;28;20434;-72
2023/07/14 02:00:49;;;;;;;5.20;3.90;;;22.50;83.40;;;;;;5019162;28;20547;-71
2023/07/14 02:03:21;;;;;;;4.90;3.80;;;22.50;83.70;;;;;;5017195;28;20478;-72
2023/07/14 02:05:47;;;;;;;7.00;3.80;;;22.50;83.90;;;;;;5016250;28;20455;-72
2023/07/14 02:08:25;;;;;;;6.10;4.03;;;22.50;83.70;;;;;;5019615;28;20494;-72
2023/07/14 02:10:51;;;;;;;7.17;3.60;;;22.40;83.70;;;;;;5010918;28;20259;-72
2023/07/14 02:13:17;;;;;;;4.70;3.97;;;22.40;84.00;;;;;;5018021;28;20962;-72
2023/07/14 02:15:44;;;;;;;4.23;3.50;;;22.30;84.20;;;;;;5017656;28;20185;-71
2023/07/14 02:18:15;;;;;;;6.87;3.80;;;22.30;84.50;;;;;;5018437;28;20961;-71
2023/07/14 02:20:42;;;;;;;4.80;3.50;;;22.20;84.90;;;;;;5013940;28;20524;-71
2023/07/14 02:23:14;;;;;;;4.00;3.30;;;22.20;85.10;;;;;;5016164;28;20460;-71
2023/07/14 02:25:46;;;;;;;3.70;3.20;;;22.20;85.90;;;;;;5016141;28;20819;-71
2023/07/14 02:28:13;;;;;;;6.03;3.87;;;22.20;86.00;;;;;;5017514;28;20451;-72
2023/07/14 02:30:42;;;;;;;10.47;3.50;;;22.20;86.10;;;;;;5016308;28;20446;-71
2023/07/14 02:33:19;;;;;;;4.73;3.13;;;22.10;86.10;;;;;;5019353;28;20461;-71
2023/07/14 02:36:09;;;;;;;4.50;3.27;;;22.10;86.50;;;;;;5020843;28;20431;-71
2023/07/14 02:38:37;;;;;;;4.83;2.90;;;22.10;86.90;;;;;;5017136;28;20440;-71
2023/07/14 02:41:07;;;;;;;4.00;3.33;;;22.10;86.80;;;;;;5017397;28;20485;-71
2023/07/14 02:43:32;;;;;;;4.53;3.20;;;22.10;87.20;;;;;;5013980;28;20988;-72
2023/07/14 02:46:13;;;;;;;4.40;3.50;;;22.00;87.20;;;;;;5017883;28;20463;-72
2023/07/14 02:48:41;;;;;;;6.20;3.50;;;22.00;87.50;;;;;;5014460;28;20219;-71
2023/07/14 02:51:06;;;;;;;4.70;3.50;;;22.00;87.60;;;;;;5021118;28;20439;-71
2023/07/14 02:53:32;;;;;;;3.70;3.30;;;22.00;87.70;;;;;;5014681;28;20978;-71
2023/07/14 02:55:58;;;;;;;5.77;3.47;;;22.00;87.80;;;;;;5020166;28;20510;-71
2023/07/14 02:58:23;;;;;;;5.87;4.07;;;22.00;87.80;;;;;;5016161;28;20196;-71
2023/07/14 03:00:49;;;;;;;4.70;3.20;;;21.90;88.10;;;;;;5016343;28;20663;-71
2023/07/14 03:03:15;;;;;;;3.80;3.03;;;21.90;88.30;;;;;;5018095;28;20215;-71
2023/07/14 03:05:43;;;;;;;3.80;3.13;;;21.90;87.60;;;;;;5016464;28;21063;-72
2023/07/14 03:08:14;;;;;;;4.00;3.00;;;21.80;87.30;;;;;;5020780;28;20439;-71
2023/07/14 03:10:41;;;;;;;6.20;3.47;;;21.80;86.90;;;;;;5015875;28;20438;-71
2023/07/14 03:13:06;;;;;;;6.10;3.40;;;21.70;86.30;;;;;;5017463;28;21554;-71
2023/07/14 03:15:32;;;;;;;6.00;3.07;;;21.80;86.40;;;;;;5016993;28;20435;-71
2023/07/14 03:17:57;;;;;;;6.97;3.20;;;21.80;86.40;;;;;;5015606;28;20208;-71
2023/07/14 03:20:23;;;;;;;3.73;2.90;;;21.70;86.20;;;;;;5015113;28;20212;-71
2023/07/14 03:22:48;;;;;;;8.33;3.20;;;21.70;86.40;;;;;;5018171;28;20204;-71
2023/07/14 03:25:14;;;;;;;4.00;3.07;;;21.70;86.50;;;;;;5018537;28;20245;-71
2023/07/14 03:27:40;;;;;;;3.30;3.00;;;21.70;86.20;;;;;;5014941;28;20215;-71
2023/07/14 03:30:06;;;;;;;6.70;3.10;;;21.70;86.30;;;;;;5018665;28;20752;-71
2023/07/14 03:32:32;;;;;;;3.70;2.60;;;21.60;85.60;;;;;;5014637;28;20441;-71
2023/07/14 03:34:58;;;;;;;5.33;3.10;;;21.60;85.70;;;;;;5018828;28;20431;-71
2023/07/14 03:37:23;;;;;;;5.33;2.93;;;21.60;86.20;;;;;;5016823;28;20626;-71
2023/07/14 03:39:49;;;;;;;8.67;3.07;;;21.60;85.70;;;;;;5020708;28;20187;-71
2023/07/14 03:42:14;;;;;;;3.63;2.83;;;21.60;85.60;;;;;;5015544;28;20685;-71
2023/07/14 03:44:40;;;;;;;6.70;3.00;;;21.60;85.50;;;;;;5015812;28;21908;-71
2023/07/14 03:47:05;;;;;;;4.40;3.13;;;21.60;85.60;;;;;;5019213;28;20570;-71
2023/07/14 03:49:31;;;;;;;9.13;3.23;;;21.60;85.30;;;;;;5020717;28;20195;-71
2023/07/14 03:51:57;;;;;;;4.47;3.77;;;21.60;85.20;;;;;;5018694;28;20185;-71
2023/07/14 03:54:23;;;;;;;6.23;3.27;;;21.70;85.30;;;;;;5020635;28;20696;-71
2023/07/14 03:56:49;;;;;;;3.70;2.90;;;21.60;85.40;;;;;;5019031;28;20496;-71
2023/07/14 03:59:14;;;;;;;4.00;2.80;;;21.60;85.70;;;;;;5023285;28;20326;-71
2023/07/14 04:01:40;;;;;;;3.80;2.80;;;21.60;85.80;;;;;;5021438;28;20565;-71
2023/07/14 04:04:06;;;;;;;6.83;3.10;;;21.60;86.00;;;;;;5020790;28;20217;-71
2023/07/14 04:06:31;;;;;;;3.97;3.17;;;21.60;86.20;;;;;;5018615;28;20215;-71
2023/07/14 04:09:00;;;;;;;4.50;3.47;;;21.50;87.10;;;;;;5023604;28;20440;-71
2023/07/14 04:11:26;;;;;;;4.63;2.90;;;21.60;86.40;;;;;;5019772;28;20735;-71
2023/07/14 04:13:51;;;;;;;4.80;2.90;;;21.60;86.40;;;;;;5024080;28;20450;-71
2023/07/14 04:16:18;;;;;;;4.70;3.10;;;21.60;86.20;;;;;;5017380;28;20197;-71
2023/07/14 04:18:44;;;;;;;3.27;2.97;;;21.70;86.30;;;;;;5024435;28;20642;-71
2023/07/14 04:21:13;;;;;;;5.53;3.17;;;21.50;86.10;;;;;;5020005;28;20513;-71
2023/07/14 04:23:39;;;;;;;5.03;3.50;;;21.60;86.10;;;;;;5020586;28;20212;-71
2023/07/14 04:26:07;;;;;;;4.33;3.60;;;21.60;86.20;;;;;;5018444;28;20473;-71
2023/07/14 04:28:33;;;;;;;7.03;3.40;;;21.50;86.10;;;;;;5022422;28;20435;-71
2023/07/14 04:31:02;;;;;;;3.20;2.90;;;21.50;86.20;;;;;;5023365;28;20427;-72
2023/07/14 04:33:29;;;;;;;4.83;3.30;;;21.40;86.40;;;;;;5018334;28;20455;-71
2023/07/14 04:35:56;;;;;;;4.23;2.90;;;21.40;85.90;;;;;;5020988;28;20438;-71
2023/07/14 04:38:23;;;;;;;4.07;3.60;;;21.40;86.30;;;;;;5021666;28;20929;-71
2023/07/14 04:40:49;;;;;;;6.10;3.40;;;21.40;86.30;;;;;;5022208;28;20431;-71
2023/07/14 04:43:17;;;;;;;4.93;3.10;;;21.40;86.10;;;;;;5023742;28;20932;-71
2023/07/14 04:45:45;;;;;;;4.00;2.93;;;21.40;85.80;;;;;;5021168;28;20500;-71
2023/07/14 04:48:16;;;;;;;4.80;3.00;;;21.40;86.40;;;;;;5024170;28;20435;-71
2023/07/14 04:50:44;;;;;;;4.90;3.20;;;21.40;86.40;;;;;;5023770;28;20435;-71
2023/07/14 04:53:11;;;;;;;4.00;3.23;;;21.40;86.40;;;;;;5023229;28;20455;-71
2023/07/14 04:55:38;;;;;;;5.20;2.83;;;21.50;86.20;;;;;;5018555;28;20454;-71
2023/07/14 04:58:04;;;;;;;5.50;2.93;;;21.40;86.00;;;;;;5017769;28;20443;-71
2023/07/14 05:00:31;;;;;;;4.00;3.23;;;21.40;86.10;;;;;;5022660;28;20446;-71
2023/07/14 05:02:57;;;;;;;10.00;4.70;;;21.40;86.10;;;;;;5021477;28;20458;-72
2023/07/14 05:05:23;;;;;;;9.33;7.87;;;21.40;85.90;;;;;;5021681;28;20450;-72
2023/07/14 05:07:49;;;;;;;5.87;4.30;;;21.40;85.90;;;;;;5021688;28;20949;-72
2023/07/14 05:10:20;;;;;;;7.00;4.23;;;21.30;86.10;;;;;;5020745;28;20427;-71
2023/07/14 05:12:49;;;;;;;4.30;3.70;;;21.30;87.00;;;;;;5020678;28;20213;-71
2023/07/14 05:15:15;;;;;;;3.50;3.20;;;21.40;86.80;;;;;;5023484;28;20502;-71
2023/07/14 05:17:41;;;;;;;4.13;3.23;;;21.50;86.70;;;;;;5018493;28;20848;-71
2023/07/14 05:20:10;;;;;;;3.83;3.43;;;21.50;86.50;;;;;;5019472;28;20323;-71
2023/07/14 05:22:37;;;;;;;4.63;3.43;;;21.60;86.60;;;;;;5019326;28;20436;-71
2023/07/14 05:25:03;;;;;;;6.20;3.63;;;21.60;86.60;;;;;;5017840;28;20959;-72
2023/07/14 05:27:30;;;;;;;5.90;3.00;;;21.60;86.60;;;;;;5021652;28;20471;-72
2023/07/14 05:29:55;;;;;;;6.20;3.30;;;21.60;86.70;;;;;;5020488;28;20428;-71
2023/07/14 05:32:22;;;;;;;6.80;3.10;;;21.70;86.60;;;;;;5022478;28;20477;-71
2023/07/14 05:34:48;;;;;;;3.83;3.30;;;21.60;86.20;;;;;;5018956;28;20605;-71
2023/07/14 05:37:15;;;;;;;4.50;3.33;;;21.70;86.40;;;;;;5024175;28;20430;-71
2023/07/14 05:39:41;;;;;;;4.40;3.07;;;21.70;86.50;;;;;;5021117;28;20443;-71
2023/07/14 05:42:07;;;;;;;5.63;3.60;;;21.70;86.40;;;;;;5018034;28;20453;-71
2023/07/14 05:44:32;;;;;;;5.30;3.50;;;21.70;86.80;;;;;;5019004;28;20245;-71
2023/07/14 05:46:58;;;;;;;5.53;3.30;;;21.70;87.30;;;;;;5018746;28;20201;-71
2023/07/14 05:49:24;;;;;;;7.07;3.43;;;21.80;87.30;;;;;;5020840;28;20173;-71
2023/07/14 05:51:53;;;;;;;3.57;3.03;;;21.90;86.80;;;;;;5019686;28;20463;-72
2023/07/14 05:54:20;;;;;;;6.53;3.37;;;22.00;86.50;;;;;;5021860;28;20200;-71
2023/07/14 05:56:46;;;;;;;10.20;6.40;;;22.00;87.10;;;;;;5017268;28;20435;-72
2023/07/14 05:59:12;;;;;;;9.10;3.53;;;22.10;87.20;;;;;;5023998;28;20462;-72
2023/07/14 06:01:38;;;;;;;6.77;3.33;;;22.10;87.30;;;;;;5017488;28;20921;-72
2023/07/14 06:04:05;;;;;;;5.70;5.10;;;22.10;88.10;;;;;;5019469;28;20206;-72
2023/07/14 06:06:31;;;;;;;8.90;4.37;;;22.10;88.10;;;;;;5015537;28;20609;-73
2023/07/14 06:08:57;;;;;;;9.13;3.87;;;22.10;88.70;;;;;;5015897;28;20813;-73
2023/07/14 06:11:23;;;;;;;4.37;3.30;;;22.10;88.50;;;;;;5013504;28;20431;-72
2023/07/14 06:13:49;;;;;;;4.73;3.27;;;22.10;89.10;;;;;;5024811;28;20470;-72
2023/07/14 06:16:14;;;;;;;5.00;3.53;;;22.10;88.80;;;;;;5021115;28;20430;-72
2023/07/14 06:18:40;;;;;;;6.50;3.50;;;22.20;88.90;;;;;;5021184;28;20185;-72
2023/07/14 06:21:07;;;;;;;7.93;3.70;;;22.20;88.80;;;;;;5018809;28;20625;-73
2023/07/14 06:23:33;;;;;;;5.60;3.43;;;22.30;89.10;;;;;;5013130;28;20197;-73
2023/07/14 06:25:59;;;;;;;8.83;3.80;;;22.30;89.50;;;;;;5007596;28;20451;-73
2023/07/14 06:28:25;;;;;;;8.43;3.60;;;22.40;89.40;;;;;;5014875;28;20195;-73
2023/07/14 06:31:00;;;;;;;5.90;3.60;;;22.40;89.60;;;;;;5017805;28;20599;-73
2023/07/14 06:33:26;;;;;;;6.10;3.63;;;22.40;89.00;;;;;;5019735;28;20438;-73
2023/07/14 06:35:55;;;;;;;4.10;3.23;;;22.50;88.70;;;;;;5014274;28;20514;-73
2023/07/14 06:38:25;;;;;;;5.70;3.53;;;22.50;88.80;;;;;;5012144;28;20261;-71
2023/07/14 06:41:14;;;;;;;8.63;3.70;;;22.50;88.20;;;;;;5019190;28;20436;-72
2023/07/14 06:43:45;;;;;;;4.97;3.10;;;22.50;88.40;;;;;;5015247;28;20455;-72
2023/07/14 06:46:15;;;;;;;7.17;4.03;;;22.60;88.90;;;;;;5018779;28;20455;-72
2023/07/14 06:48:50;;;;;;;6.33;3.17;;;22.70;88.20;;;;;;5015921;28;20429;-73
2023/07/14 06:51:16;;;;;;;6.47;5.17;;;22.80;87.70;;;;;;5017627;28;20495;-72
2023/07/14 06:56:49;;;;;;;7.40;4.57;;;22.90;88.30;;;;;;5009736;28;20190;-70
2023/07/14 07:09:21;;;;;;;4.10;3.27;;;23.10;85.90;;;;;;5013647;28;20469;-70
2023/07/14 07:11:46;;;;;;;4.50;3.17;;;23.10;85.60;;;;;;5010257;28;20435;-71
2023/07/14 07:14:12;;;;;;;4.43;3.20;;;23.10;85.80;;;;;;5016713;28;20215;-71
2023/07/14 07:16:37;;;;;;;3.70;3.00;;;23.20;86.30;;;;;;5016845;28;20189;-72
2023/07/14 07:39:16;;;;;;;4.50;3.30;;;23.50;85.10;;;;;;5013926;28;20807;-70
